Česky Dansk Deutsch English Español Suomi Français Magyar Italiano Nederlands norsk Polski Português svenska Türkçe

 

Het Weer

Toulouse / Blagnac (Frankrijk)

17:30, 19 augustus 2016 (GMT)

NWNNE
WE
SWSSE
Home            
Toulouse / Blagnac Toulouse / Francazal Auch Albi St-Girons Agen Carcassonne Cassagnes-Begonhes Rodez Pau Bergerac Mont-De-Marsan Perpignan Aurillac Beziers / Vias Brive Perigueux Dax Mende / Brenoux Montpellier Bordeaux / Merignac Cazaux Gerona / Costa Brava

Om een weerknop op uw website of weblog te plaatsen, copieer onderstaande code en plak die in uw pagina. In het eerste vakje staat HTML-code, in het tweede vakje UBB-code.


Add to Google

Details

Wind speed:4 bf, 11 kn, 5.7 m/s, 12.7 miles/h, 20.4 km/h
Wind direction:NNW, 340°
Visibility:Greater than 10000 m, 10 km, 32800 ft, 6.2 miles
Clouds:CAVOC
Temperature:30°C, 86°F
Gefühlte Temperatur:29°C, 85°F
Dew-point:13°C, 55°F
Atmospheric pressure:1011 hPa, 758.3 mmHg, 29.85 inHg, 0.998 atm
Relative humidity:35.3 %
METAR:LFBO 191730Z AUTO 34011KT CAVOK 30/13 Q1011 NOSIG

Snelkoppelingen

Actuele weersinformatie van de hele wereld. Voeg locaties toe met het plus (+) symbool. Deze snelkoppelingen kunnen worden toegevoegd aan Google.

Lid van de Technetium groep

website free tracking
StatCounter NetStat W3C Validator

03-10-2022 12:45:51
astro.technetium.be money.technetium.be phote.technetium.be tafeltennistafel.technetium.be www.ligfiets.net